createdAt,value
2022-09-18T00:01:59.755Z,70.77
2022-09-18T00:04:31.073Z,70.23
2022-09-18T00:07:02.611Z,71.38
2022-09-18T00:09:32.527Z,70.86
2022-09-18T00:12:00.988Z,69.56
2022-09-18T00:14:29.441Z,68.00
2022-09-18T00:16:58.028Z,66.45
2022-09-18T00:19:26.507Z,68.35
2022-09-18T00:21:54.915Z,68.02
2022-09-18T00:24:24.379Z,67.32
2022-09-18T00:26:54.211Z,68.15
2022-09-18T00:29:22.624Z,68.93
2022-09-18T00:31:51.158Z,67.66
2022-09-18T00:34:19.839Z,68.82
2022-09-18T00:36:48.412Z,68.80
2022-09-18T00:39:16.968Z,70.25
2022-09-18T00:41:45.632Z,70.18
2022-09-18T00:44:40.204Z,70.32
2022-09-18T00:47:19.180Z,69.24
2022-09-18T00:49:51.256Z,70.56
2022-09-18T00:52:23.207Z,71.13
2022-09-18T00:54:55.900Z,70.29
2022-09-18T00:57:29.296Z,70.94
2022-09-18T00:59:59.343Z,70.39
2022-09-18T01:02:27.975Z,71.28
2022-09-18T01:04:56.812Z,72.80
2022-09-18T01:07:32.458Z,71.23
2022-09-18T01:10:10.466Z,72.68
2022-09-18T01:12:47.019Z,71.97
2022-09-18T01:15:26.523Z,71.98
2022-09-18T01:18:05.331Z,73.10
2022-09-18T01:20:47.841Z,70.42
2022-09-18T01:23:38.284Z,71.60
2022-09-18T01:26:18.087Z,72.52
2022-09-18T01:28:54.793Z,71.49
2022-09-18T01:31:31.378Z,71.69
2022-09-18T01:34:03.640Z,70.18
2022-09-18T01:36:37.872Z,69.63
2022-09-18T01:39:12.850Z,71.42
2022-09-18T01:41:51.996Z,70.95
2022-09-18T01:44:27.893Z,70.25
2022-09-18T01:47:01.960Z,71.35
2022-09-18T01:49:40.835Z,71.74
2022-09-18T01:52:13.524Z,70.83
2022-09-18T01:54:49.668Z,71.47
2022-09-18T01:57:23.596Z,69.26
2022-09-18T02:00:01.721Z,70.15
2022-09-18T02:02:39.465Z,70.83
2022-09-18T02:05:12.976Z,70.80
2022-09-18T02:07:51.030Z,70.41
2022-09-18T02:10:23.391Z,70.41
2022-09-18T02:12:54.981Z,70.90
2022-09-18T02:15:30.961Z,71.05
2022-09-18T02:18:09.988Z,70.99
2022-09-18T02:20:46.221Z,71.79
2022-09-18T02:23:16.089Z,72.49
2022-09-18T02:25:49.835Z,69.80
2022-09-18T02:28:23.146Z,70.52
2022-09-18T02:30:53.428Z,71.26
2022-09-18T02:33:29.114Z,71.22
2022-09-18T02:36:19.857Z,72.04
2022-09-18T02:38:55.447Z,70.84
2022-09-18T02:41:38.945Z,70.83
2022-09-18T02:44:14.255Z,71.81
2022-09-18T02:46:57.869Z,71.83
2022-09-18T02:49:40.978Z,70.61
2022-09-18T02:52:16.944Z,69.86
2022-09-18T02:54:53.651Z,69.52
2022-09-18T02:57:28.244Z,70.61
2022-09-18T03:00:00.809Z,69.75
2022-09-18T03:02:33.851Z,69.68
2022-09-18T03:05:02.641Z,70.79
2022-09-18T03:07:49.715Z,69.40
2022-09-18T03:10:18.486Z,69.41
2022-09-18T03:12:47.197Z,72.43
2022-09-18T03:15:17.788Z,72.90
2022-09-18T03:17:47.486Z,70.70
2022-09-18T03:20:16.342Z,69.23
2022-09-18T03:22:44.577Z,68.42
2022-09-18T03:25:14.569Z,69.00
2022-09-18T03:27:44.165Z,69.27
2022-09-18T03:30:17.911Z,68.88
2022-09-18T03:32:47.783Z,67.16
2022-09-18T03:35:18.128Z,67.68
2022-09-18T03:37:49.053Z,67.88
2022-09-18T03:40:22.497Z,67.93
2022-09-18T03:42:51.880Z,66.56
2022-09-18T03:45:20.467Z,67.33
2022-09-18T03:47:50.550Z,67.73
2022-09-18T03:50:19.307Z,67.60
2022-09-18T03:52:51.600Z,68.25
2022-09-18T03:55:43.429Z,69.27
2022-09-18T03:58:26.395Z,65.81
2022-09-18T04:01:13.949Z,66.33
2022-09-18T04:04:21.829Z,66.96
2022-09-18T04:07:10.419Z,66.56
2022-09-18T04:09:45.239Z,65.93
2022-09-18T04:12:13.437Z,64.84
2022-09-18T04:14:44.774Z,66.71
2022-09-18T04:17:14.203Z,66.46
2022-09-18T04:19:44.280Z,66.71
2022-09-18T04:22:12.867Z,65.92
2022-09-18T04:24:41.332Z,65.73
2022-09-18T04:27:10.016Z,65.47
2022-09-18T04:29:39.544Z,65.01
2022-09-18T04:32:09.732Z,65.67
2022-09-18T04:34:38.276Z,66.95
2022-09-18T04:37:10.311Z,66.88
2022-09-18T04:39:40.493Z,67.13
2022-09-18T04:42:10.768Z,66.41
2022-09-18T04:44:40.401Z,66.56
2022-09-18T04:47:11.060Z,66.66
2022-09-18T04:49:39.941Z,65.07
2022-09-18T04:52:10.784Z,67.33
2022-09-18T04:54:39.373Z,68.12
2022-09-18T04:57:09.040Z,67.27
2022-09-18T04:59:37.636Z,65.96
2022-09-18T05:02:06.987Z,66.13
2022-09-18T05:04:36.445Z,66.41
2022-09-18T05:07:14.839Z,64.11
2022-09-18T05:09:43.472Z,66.27
2022-09-18T05:12:11.944Z,65.85
2022-09-18T05:14:42.188Z,64.72
2022-09-18T05:17:14.065Z,64.44
2022-09-18T05:20:00.052Z,65.48
2022-09-18T05:22:36.136Z,64.35
2022-09-18T05:25:06.116Z,64.14
2022-09-18T05:27:35.087Z,63.01
2022-09-18T05:30:03.642Z,63.13
2022-09-18T05:32:58.868Z,61.18
2022-09-18T05:35:30.944Z,60.24
2022-09-18T05:38:02.736Z,61.83
2022-09-18T05:40:36.513Z,63.40
2022-09-18T05:43:05.597Z,63.50
2022-09-18T05:45:36.143Z,63.07
2022-09-18T05:48:15.133Z,64.33
2022-09-18T05:50:43.746Z,65.89
2022-09-18T05:53:17.525Z,68.09
2022-09-18T05:55:57.753Z,67.45
2022-09-18T05:58:26.238Z,67.63
2022-09-18T06:01:00.889Z,63.84
2022-09-18T06:03:39.371Z,63.47
2022-09-18T06:06:08.669Z,63.48
2022-09-18T06:08:39.346Z,63.06
2022-09-18T06:11:09.059Z,62.60
2022-09-18T06:13:37.798Z,63.50
2022-09-18T06:16:07.213Z,63.91
2022-09-18T06:18:52.503Z,63.91
2022-09-18T06:21:22.463Z,63.09
2022-09-18T06:23:52.410Z,62.00
2022-09-18T06:26:38.114Z,61.91
2022-09-18T06:29:08.015Z,62.34
2022-09-18T06:31:48.355Z,60.92
2022-09-18T06:34:28.437Z,59.12
2022-09-18T06:37:03.433Z,59.27
2022-09-18T06:39:53.588Z,60.90
2022-09-18T06:42:46.171Z,61.12
2022-09-18T06:45:34.630Z,60.86
2022-09-18T06:48:05.901Z,60.19
2022-09-18T06:50:36.588Z,60.46
2022-09-18T06:53:11.438Z,59.39
2022-09-18T06:55:45.284Z,57.48
2022-09-18T06:58:13.853Z,58.72
2022-09-18T07:00:42.705Z,54.30
2022-09-18T07:03:11.490Z,55.72
2022-09-18T07:05:58.349Z,57.16
2022-09-18T07:08:42.321Z,57.26
2022-09-18T07:11:18.876Z,58.40
2022-09-18T07:13:48.424Z,55.13
2022-09-18T07:16:17.026Z,55.42
2022-09-18T07:18:51.052Z,54.08
2022-09-18T07:21:21.494Z,55.19
2022-09-18T07:23:50.067Z,53.59
2022-09-18T07:26:20.474Z,50.09
2022-09-18T07:28:51.941Z,51.72
2022-09-18T07:31:29.132Z,50.70
2022-09-18T07:33:58.212Z,50.47
2022-09-18T07:36:29.689Z,50.47
2022-09-18T07:38:58.733Z,51.46
2022-09-18T07:41:37.659Z,51.91
2022-09-18T07:44:08.252Z,53.12
2022-09-18T07:46:37.139Z,53.55
2022-09-18T07:49:08.339Z,53.15
2022-09-18T07:51:38.429Z,51.75
2022-09-18T07:54:07.560Z,52.95
2022-09-18T07:57:01.642Z,52.64
2022-09-18T07:59:37.330Z,50.35
2022-09-18T08:02:07.322Z,50.19
2022-09-18T08:04:38.180Z,48.62
2022-09-18T08:07:21.639Z,48.58
2022-09-18T08:10:04.487Z,49.95
2022-09-18T08:12:56.122Z,48.92
2022-09-18T08:15:45.026Z,49.60
2022-09-18T08:18:31.968Z,49.55
2022-09-18T08:21:10.867Z,49.81
2022-09-18T08:23:51.601Z,50.61
2022-09-18T08:26:22.456Z,48.64
2022-09-18T08:28:54.885Z,49.02
2022-09-18T08:31:24.144Z,47.60
2022-09-18T08:33:56.549Z,47.38
2022-09-18T08:36:26.213Z,47.97
2022-09-18T08:39:10.937Z,48.75
2022-09-18T08:42:25.928Z,50.59
2022-09-18T08:45:01.777Z,49.61
2022-09-18T08:47:36.998Z,47.88
2022-09-18T08:50:17.926Z,48.58
2022-09-18T08:52:52.251Z,47.28
2022-09-18T08:55:33.468Z,46.26
2022-09-18T08:58:27.077Z,48.72
2022-09-18T09:01:03.253Z,48.70
2022-09-18T09:03:56.069Z,49.01
2022-09-18T09:06:40.605Z,46.83
2022-09-18T09:09:34.111Z,46.63
2022-09-18T09:12:15.863Z,46.92
2022-09-18T09:14:59.484Z,48.37
2022-09-18T09:17:42.475Z,48.54
2022-09-18T09:20:22.000Z,47.88
2022-09-18T09:23:03.193Z,48.58
2022-09-18T09:25:43.027Z,48.07
2022-09-18T09:28:41.548Z,48.67
2022-09-18T09:31:44.489Z,50.63
2022-09-18T09:34:36.839Z,49.38
2022-09-18T09:37:13.380Z,48.66
2022-09-18T09:39:46.903Z,48.32
2022-09-18T09:42:22.758Z,49.44
2022-09-18T09:44:55.713Z,47.93
2022-09-18T09:47:35.159Z,48.37
2022-09-18T09:50:22.175Z,49.08
2022-09-18T09:53:02.108Z,48.63
2022-09-18T09:55:37.797Z,49.31
2022-09-18T09:58:17.694Z,48.39
2022-09-18T10:00:54.415Z,47.36
2022-09-18T10:03:35.597Z,49.86
2022-09-18T10:06:17.037Z,49.09
2022-09-18T10:08:51.161Z,48.88
2022-09-18T10:11:20.690Z,49.86
2022-09-18T10:14:01.036Z,49.80
2022-09-18T10:16:36.512Z,53.55
2022-09-18T10:19:12.073Z,50.74
2022-09-18T10:21:43.926Z,52.04
2022-09-18T10:24:23.488Z,52.03
2022-09-18T10:27:01.132Z,51.29
2022-09-18T10:29:35.606Z,51.54
2022-09-18T10:32:08.137Z,52.79
2022-09-18T10:34:42.477Z,52.16
2022-09-18T10:37:20.069Z,52.67
2022-09-18T10:39:57.921Z,54.60
2022-09-18T10:42:28.867Z,53.55
2022-09-18T10:45:22.445Z,54.11
2022-09-18T10:48:06.103Z,53.58
2022-09-18T10:50:39.285Z,53.34
2022-09-18T10:53:28.561Z,53.18
2022-09-18T10:56:05.593Z,53.15
2022-09-18T10:58:35.236Z,53.37
2022-09-18T11:01:09.497Z,52.94
2022-09-18T11:03:46.479Z,53.39
2022-09-18T11:06:24.536Z,52.63
2022-09-18T11:08:58.547Z,54.52
2022-09-18T11:11:30.370Z,55.27
2022-09-18T11:14:05.878Z,55.95
2022-09-18T11:16:51.686Z,54.71
2022-09-18T11:19:29.378Z,54.25
2022-09-18T11:22:03.527Z,54.69
2022-09-18T11:24:41.992Z,54.01
2022-09-18T11:27:21.560Z,56.16
2022-09-18T11:29:52.015Z,54.97
2022-09-18T11:32:25.376Z,54.62
2022-09-18T11:35:00.422Z,54.96
2022-09-18T11:37:37.324Z,55.99
2022-09-18T11:40:18.723Z,55.19
2022-09-18T11:42:50.846Z,56.67
2022-09-18T11:45:35.894Z,57.25
2022-09-18T11:48:16.681Z,59.46
2022-09-18T11:50:46.787Z,60.22
2022-09-18T11:53:20.844Z,57.95
2022-09-18T11:55:55.914Z,58.20
2022-09-18T11:58:31.468Z,60.08
2022-09-18T12:01:15.848Z,62.68
2022-09-18T12:03:50.152Z,63.87
2022-09-18T12:06:24.919Z,66.62
2022-09-18T12:08:59.491Z,64.58
2022-09-18T12:11:38.985Z,64.83
2022-09-18T12:14:15.838Z,64.84
2022-09-18T12:17:01.285Z,64.68
2022-09-18T12:19:38.304Z,65.11
2022-09-18T12:22:16.689Z,65.96
2022-09-18T12:24:46.993Z,65.65
2022-09-18T12:27:29.748Z,66.52
2022-09-18T12:30:07.465Z,66.10
2022-09-18T12:32:56.230Z,69.73
2022-09-18T12:35:36.151Z,67.80
2022-09-18T12:38:17.748Z,70.11
2022-09-18T12:41:02.684Z,69.61
2022-09-18T12:43:48.886Z,71.44
2022-09-18T12:46:41.046Z,70.57
2022-09-18T12:49:31.267Z,70.51
2022-09-18T12:52:11.001Z,71.62
2022-09-18T12:54:56.323Z,70.40
2022-09-18T12:57:40.924Z,70.72
2022-09-18T13:00:14.052Z,71.20
2022-09-18T13:02:56.262Z,71.31
2022-09-18T13:05:31.229Z,72.06
2022-09-18T13:08:07.729Z,71.32
2022-09-18T13:10:40.249Z,71.63
2022-09-18T13:13:23.358Z,72.64
2022-09-18T13:15:57.861Z,72.14
2022-09-18T13:18:37.324Z,73.95
2022-09-18T13:21:10.204Z,72.68
2022-09-18T13:23:41.857Z,74.75
2022-09-18T13:26:13.473Z,73.52
2022-09-18T13:28:43.511Z,74.65
2022-09-18T13:31:25.146Z,74.57
2022-09-18T13:33:56.486Z,74.08
2022-09-18T13:36:29.674Z,74.52
2022-09-18T13:39:01.167Z,75.94
2022-09-18T13:41:41.907Z,75.01
2022-09-18T13:44:19.605Z,73.32
2022-09-18T13:46:51.681Z,72.88
2022-09-18T13:49:30.016Z,73.78
2022-09-18T13:52:42.077Z,72.68
2022-09-18T13:55:36.715Z,72.65
2022-09-18T13:58:54.526Z,74.84
2022-09-18T14:02:03.809Z,73.62
2022-09-18T14:04:58.142Z,72.86
2022-09-18T14:07:53.947Z,72.38
2022-09-18T14:10:36.567Z,71.94
2022-09-18T14:13:34.736Z,71.86
2022-09-18T14:16:13.304Z,70.99
2022-09-18T14:18:55.793Z,69.31
2022-09-18T14:21:28.591Z,72.06
2022-09-18T14:24:36.677Z,71.52
2022-09-18T14:27:31.390Z,72.20
2022-09-18T14:30:03.417Z,70.83
2022-09-18T14:32:34.037Z,72.03
2022-09-18T14:35:27.108Z,71.64
2022-09-18T14:37:58.655Z,72.48
2022-09-18T14:40:28.500Z,74.72
2022-09-18T14:42:58.422Z,74.19
2022-09-18T14:45:31.202Z,73.47
2022-09-18T14:48:24.416Z,75.21
2022-09-18T14:51:05.807Z,72.45
2022-09-18T14:53:47.901Z,72.63
2022-09-18T14:56:19.682Z,72.16
2022-09-18T14:58:50.630Z,71.63
2022-09-18T15:01:25.066Z,70.99
2022-09-18T15:03:56.465Z,71.38
2022-09-18T15:06:35.324Z,73.50
2022-09-18T15:09:05.028Z,74.04
2022-09-18T15:11:52.488Z,73.09
2022-09-18T15:14:46.854Z,72.52
2022-09-18T15:17:22.506Z,72.96
2022-09-18T15:20:00.485Z,72.72
2022-09-18T15:22:32.151Z,73.33
2022-09-18T15:25:14.240Z,71.70
2022-09-18T15:27:44.437Z,72.80
2022-09-18T15:30:18.843Z,72.12
2022-09-18T15:32:51.209Z,74.31
2022-09-18T15:35:23.744Z,75.46
2022-09-18T15:38:00.900Z,73.32
2022-09-18T15:40:37.287Z,73.77
2022-09-18T15:43:41.495Z,74.16
2022-09-18T15:46:25.866Z,75.00
2022-09-18T15:48:59.791Z,74.12
2022-09-18T15:51:30.557Z,74.46
2022-09-18T15:54:07.784Z,72.30
2022-09-18T15:56:50.809Z,72.43
2022-09-18T15:59:26.616Z,72.81
2022-09-18T16:01:56.331Z,73.69
2022-09-18T16:04:33.230Z,73.77
2022-09-18T16:07:30.928Z,73.76
2022-09-18T16:11:04.137Z,72.02
2022-09-18T16:14:00.908Z,72.59
2022-09-18T16:16:42.222Z,74.58
2022-09-18T16:19:13.455Z,73.12
2022-09-18T16:21:46.169Z,72.67
2022-09-18T16:24:23.986Z,72.67
2022-09-18T16:26:55.170Z,71.38
2022-09-18T16:29:25.558Z,73.96
2022-09-18T16:31:58.505Z,73.03
2022-09-18T16:34:29.904Z,71.96
2022-09-18T16:36:59.728Z,72.49
2022-09-18T16:39:29.388Z,71.18
2022-09-18T16:42:08.823Z,71.81
2022-09-18T16:44:39.374Z,70.68
2022-09-18T16:47:10.268Z,72.37
2022-09-18T16:49:42.891Z,72.25
2022-09-18T16:52:15.066Z,72.17
2022-09-18T16:54:44.513Z,73.11
2022-09-18T16:57:19.855Z,71.55
2022-09-18T16:59:53.843Z,71.71
2022-09-18T17:02:26.112Z,71.74
2022-09-18T17:04:55.810Z,71.45
2022-09-18T17:07:30.818Z,71.50
2022-09-18T17:10:11.555Z,72.70
2022-09-18T17:12:46.845Z,73.31
2022-09-18T17:15:19.940Z,72.75
2022-09-18T17:17:50.538Z,73.19
2022-09-18T17:20:23.364Z,71.75
2022-09-18T17:22:58.290Z,71.05
2022-09-18T17:25:37.486Z,71.08
2022-09-18T17:28:19.911Z,71.06
2022-09-18T17:30:51.047Z,70.53
2022-09-18T17:33:27.870Z,70.87
2022-09-18T17:35:59.556Z,71.54
2022-09-18T17:38:38.312Z,71.56
2022-09-18T17:41:10.998Z,70.53
2022-09-18T17:43:42.923Z,73.68
2022-09-18T17:46:17.928Z,73.01
2022-09-18T17:48:51.028Z,71.66
2022-09-18T17:51:20.566Z,72.73
2022-09-18T17:53:54.133Z,73.03
2022-09-18T17:56:30.016Z,71.73
2022-09-18T17:59:09.372Z,71.99
2022-09-18T18:01:47.377Z,71.57
2022-09-18T18:04:22.212Z,70.74
2022-09-18T18:06:54.647Z,73.51
2022-09-18T18:09:27.097Z,72.42
2022-09-18T18:11:59.736Z,71.96
2022-09-18T18:14:31.508Z,70.95
2022-09-18T18:17:02.549Z,70.85
2022-09-18T18:19:35.251Z,71.30
2022-09-18T18:22:05.017Z,71.44
2022-09-18T18:24:34.704Z,70.89
2022-09-18T18:27:06.411Z,70.77
2022-09-18T18:29:43.968Z,71.58
2022-09-18T18:32:16.082Z,71.96
2022-09-18T18:34:45.500Z,71.95
2022-09-18T18:37:17.615Z,71.36
2022-09-18T18:39:48.188Z,72.73
2022-09-18T18:42:17.670Z,72.82
2022-09-18T18:44:48.470Z,73.76
2022-09-18T18:47:18.344Z,73.18
2022-09-18T18:49:49.286Z,73.99
2022-09-18T18:52:19.505Z,74.97
2022-09-18T18:54:50.393Z,73.01
2022-09-18T18:57:23.086Z,73.30
2022-09-18T18:59:53.747Z,71.82
2022-09-18T19:02:23.132Z,71.21
2022-09-18T19:04:53.115Z,72.35
2022-09-18T19:07:30.184Z,71.84
2022-09-18T19:09:59.589Z,74.14
2022-09-18T19:12:28.792Z,74.93
2022-09-18T19:14:59.042Z,73.57
2022-09-18T19:17:29.359Z,73.31
2022-09-18T19:19:58.782Z,75.12
2022-09-18T19:22:27.371Z,73.42
2022-09-18T19:24:56.376Z,72.43
2022-09-18T19:27:25.164Z,72.88
2022-09-18T19:29:53.662Z,72.63
2022-09-18T19:32:23.714Z,72.85
2022-09-18T19:34:52.492Z,75.44
2022-09-18T19:37:21.183Z,73.95
2022-09-18T19:39:51.347Z,73.09
2022-09-18T19:42:20.468Z,72.74
2022-09-18T19:44:51.522Z,72.11
2022-09-18T19:47:26.376Z,71.99
2022-09-18T19:49:56.812Z,72.60
2022-09-18T19:52:27.717Z,73.23
2022-09-18T19:55:00.388Z,73.20
2022-09-18T19:57:30.236Z,73.90
2022-09-18T20:00:01.203Z,73.17
2022-09-18T20:02:36.213Z,72.90
2022-09-18T20:05:06.127Z,72.64
2022-09-18T20:07:34.924Z,72.39
2022-09-18T20:10:03.547Z,72.65
2022-09-18T20:12:35.487Z,72.29
2022-09-18T20:15:04.771Z,71.81
2022-09-18T20:17:34.906Z,73.24
2022-09-18T20:20:05.882Z,72.61
2022-09-18T20:22:40.027Z,73.29
2022-09-18T20:25:09.637Z,73.24
2022-09-18T20:27:41.375Z,72.41
2022-09-18T20:30:14.792Z,71.68
2022-09-18T20:32:44.974Z,72.17
2022-09-18T20:35:15.800Z,72.87
2022-09-18T20:37:44.499Z,73.04
2022-09-18T20:40:13.540Z,72.52
2022-09-18T20:42:44.843Z,73.77
2022-09-18T20:45:13.412Z,74.23
2022-09-18T20:47:41.893Z,73.70
2022-09-18T20:50:13.652Z,73.66
2022-09-18T20:52:46.572Z,72.97
2022-09-18T20:55:17.540Z,72.48
2022-09-18T20:57:46.467Z,72.44
2022-09-18T21:00:18.142Z,72.29
2022-09-18T21:02:53.493Z,72.76
2022-09-18T21:05:27.292Z,73.24
2022-09-18T21:07:57.548Z,72.66
2022-09-18T21:10:26.183Z,71.98
2022-09-18T21:12:54.614Z,71.90
2022-09-18T21:15:23.480Z,72.42
2022-09-18T21:17:54.145Z,71.91
2022-09-18T21:20:24.123Z,72.87
2022-09-18T21:23:12.822Z,73.12
2022-09-18T21:25:41.416Z,73.49
2022-09-18T21:28:09.862Z,73.68
2022-09-18T21:30:38.463Z,75.28
2022-09-18T21:33:10.833Z,78.25
2022-09-18T21:35:42.639Z,80.06
2022-09-18T21:38:12.955Z,78.32
2022-09-18T21:40:43.670Z,77.73
2022-09-18T21:43:12.487Z,78.03
2022-09-18T21:45:41.233Z,78.76
2022-09-18T21:48:09.491Z,79.64
2022-09-18T21:50:42.847Z,77.83
2022-09-18T21:53:14.230Z,77.50
2022-09-18T21:55:42.931Z,78.08
2022-09-18T21:58:12.140Z,77.75
2022-09-18T22:00:40.724Z,77.38
2022-09-18T22:03:09.860Z,76.18
2022-09-18T22:05:38.385Z,75.97
2022-09-18T22:08:11.500Z,74.96
2022-09-18T22:10:40.209Z,76.37
2022-09-18T22:13:08.611Z,73.80
2022-09-18T22:15:37.132Z,73.70
2022-09-18T22:18:07.334Z,76.54
2022-09-18T22:20:40.379Z,75.93
2022-09-18T22:23:10.278Z,74.90
2022-09-18T22:25:40.514Z,74.21
2022-09-18T22:28:09.660Z,74.26
2022-09-18T22:30:38.303Z,72.79
2022-09-18T22:33:06.991Z,71.23
2022-09-18T22:35:35.397Z,71.39
2022-09-18T22:38:04.082Z,73.23
2022-09-18T22:40:34.178Z,73.62
2022-09-18T22:43:02.788Z,73.44
2022-09-18T22:45:31.283Z,72.74
2022-09-18T22:48:01.175Z,72.55
2022-09-18T22:50:29.811Z,72.97
2022-09-18T22:52:58.931Z,73.36
2022-09-18T22:55:27.551Z,73.46
2022-09-18T22:57:58.104Z,72.86
2022-09-18T23:00:26.767Z,73.76
2022-09-18T23:02:55.771Z,75.17
2022-09-18T23:05:24.310Z,72.87
2022-09-18T23:07:52.794Z,73.01
2022-09-18T23:10:21.787Z,73.31
2022-09-18T23:12:53.800Z,72.72
2022-09-18T23:15:24.770Z,72.80
2022-09-18T23:17:53.864Z,71.89
2022-09-18T23:20:22.872Z,72.73
2022-09-18T23:22:51.337Z,73.73
2022-09-18T23:25:22.218Z,73.24
2022-09-18T23:27:53.085Z,73.05
2022-09-18T23:30:23.472Z,72.66
2022-09-18T23:32:55.798Z,72.88
2022-09-18T23:35:24.477Z,73.03
2022-09-18T23:37:52.996Z,72.71
2022-09-18T23:40:21.650Z,72.54
2022-09-18T23:42:50.157Z,72.05
2022-09-18T23:45:18.803Z,72.95
2022-09-18T23:47:47.295Z,72.25
2022-09-18T23:50:17.490Z,72.24
2022-09-18T23:52:46.025Z,72.54
2022-09-18T23:55:14.623Z,71.68
2022-09-18T23:57:43.094Z,71.61
